Résultats

Trail Urbain Lannion : Course des Pères Noël?

1er
Julien HERVé
Man Immo Pro S. Ory / As BÉgard

00:20:37
14.6 Km/h
2ème
Étienne LE CHAPELAIN
As Begard

00:21:25
14 Km/h
3ème
Provost ANTOINE
Tempo Run Club

00:21:29
14 Km/h
229ème
Dernier


00:50:01
6 Km/h
229 résultats trouvés
Class. scratch ↑
Class. categorie ↓
Dossard ↓
Nom ↓
Club ↓
T. officiel ↓
1 / 2291 SEM / 18446Julien HERVé Man Immo Pro S. Ory / As BÉgard00:20:37
2 / 2292 SEM / 18424Étienne LE CHAPELAINAs Begard00:21:25
3 / 2293 SEM / 18671Provost ANTOINETempo Run Club00:21:29
4 / 2291 CAM / 31656Youenn HINGANTLannion Athle00:21:52
5 / 2291 M0M / 3472Vincent LE ROUXLannion Athletisme00:21:54
6 / 2291 JUM / 6703TB ?Lannion Athletisme00:22:00
7 / 2292 CAM / 31790Arthur BILLONLannion Athletisme00:22:30
8 / 2294 SEM / 18493Jeremy BRIANDTa Rennes00:22:47
9 / 2291 M1M / 8436Anthony LE BRIAND 00:22:57
10 / 2291 ESM / 6459PR ?00:23:07
11 / 2292 M1M / 8694Sebastien BALONDRADETeam Lms²00:23:30
12 / 2293 CAM / 31733Erwan PLU00:23:48
13 / 2294 CAM / 31699Mathieu FEGEANTLannion Athletisme00:23:52
14 / 2295 CAM / 31705Nathan MONTENOTLannion Triathlon00:23:58
15 / 2292 M0M / 3788Ludovic LE PAPETerre De Runners00:24:05
16 / 2296 CAM / 31467Meliau CHARLESLannion Athletisme00:24:32
17 / 2291 MIM / 13795Alexandre HERNEQUéLannion Triathlon00:24:45
18 / 2291 M2M / 8414Emmanuel MORVAN00:24:48
19 / 2291 M0F / 10759Ofelia HOWEAs Begard00:24:50
20 / 2297 CAM / 31798Tymeo ROUXELLannion Triathlon00:24:51
21 / 2292 ESM / 6447AN ?00:25:05
22 / 2298 CAM / 31782Noé KERAUDREN00:25:19
23 / 2292 MIM / 13723LL ?Endurance Shop Lannion00:25:28
24 / 2293 M1M / 8497David LEFEUVRETerre De Runners Lannion00:25:41
25 / 2295 SEM / 18760William KERMOAL As Begard00:25:47
26 / 2293 ESM / 6737CT ?Endurance Shop Lannion00:25:58
27 / 2299 CAM / 31697Noah FLOURY Athle Lannion00:26:07
28 / 22910 CAM / 31780Enak DEWETLannion Athle00:26:08
29 / 2293 MIM / 13765Timéo PERONLannion Athlétisme00:26:09
30 / 22911 CAM / 31415Thuriel LE BORGNE00:26:31
31 / 2296 SEM / 18478D ?Lannion Triathlon00:26:51
32 / 22912 CAM / 31421François ROUXEL00:26:54
33 / 2297 SEM / 18692Pierre HENRY00:26:54
34 / 22913 CAM / 31722Noé BRAULT00:26:55
35 / 2294 MIM / 13706PA ?Uc Briochine00:27:23
36 / 2298 SEM / 18430Nicolas LE BOLCH00:27:27
37 / 2291 CAF / 10695Leï-loo BALONDRADETeam Man Immo Trail Stephane Ory00:27:29
38 / 22914 CAM / 31410Romain SERVAIN00:27:33
39 / 22915 CAM / 31460Youen LE BUAN00:27:34
40 / 22916 CAM / 31743MP ?Gan Assurances Lannion00:27:37
41 / 2291 ESF / 8704CR ?Lannion Athletisme00:27:43
42 / 2291 M2F / 23724CL ?Endurance Shop Lannion00:27:54
43 / 2292 JUM / 6456Martin LORIENT 00:27:56
44 / 2294 ESM / 6469Gurvan PERU00:28:03
45 / 2292 M2M / 8463SL ?00:28:13
46 / 22917 CAM / 31441Ethan FERELLEC 00:28:13
47 / 2291 MIF / 16696Malivey BALONDRADETeam Man Immo Trail Stephane Ory00:28:17
48 / 22918 CAM / 31791Alan PRIGENTLes Rêves D'emmy00:28:17
49 / 22919 CAM / 31443ES ?00:28:31
50 / 2291 SEF / 14670Mathilde CHARBONNIERLannion Triathlon00:28:39
Une question ? Une erreur ?

Contactez l'assistance Listino !

Le saviez-vous ?

Avec Listino Chrono, vous pouvez consulter votre classement en ligne quelques secondes après votre arrivée, et même avant pour les temps intermédiaires !

Partagez votre résultat

Vous , partagez !